.
WxDataArchive / Data Records for 2011-12-31
2011-12-30 December 2011 2012-01-01

Data Records for Saturday, 31 December 2011

Time	Temp	Chill	HIndex	Humid	Dewpt	 Wind 	HiWind	WindDir	Rain 	Barom 
-----	----	-----	------	-----	-----	------	------	-------	-----	----- 
00:00	40.9	40.9	40.9	88	37.6	3	6	248	0.00	29.660 
00:05	40.8	40.8	40.8	88	37.5	1	4	248	0.00	29.660 
00:10	40.6	40.6	40.6	88	37.3	2	6	248	0.00	29.660 
00:15	40.5	40.5	40.5	88	37.2	2	4	248	0.00	29.669 
00:20	40.3	40.3	40.3	88	37.0	2	9	270	0.00	29.669 
00:25	40.2	40.2	40.2	88	36.9	2	6	248	0.00	29.669 
00:30	40.1	40.1	40.1	88	36.8	1	3	270	0.00	29.668 
00:35	40.1	40.1	40.1	88	36.8	1	4	270	0.00	29.668 
00:40	39.9	39.9	39.9	88	36.6	2	5	270	0.00	29.668 
00:45	39.8	39.8	39.8	88	36.5	2	5	248	0.00	29.669 
00:50	39.8	39.8	39.8	88	36.5	1	5	248	0.00	29.669 
00:55	39.6	39.6	39.6	88	36.3	1	4	270	0.00	29.669 
01:00	39.6	39.6	39.6	88	36.3	2	6	248	0.00	29.672 
01:05	39.5	39.5	39.5	88	36.2	2	5	248	0.00	29.672 
01:10	39.5	39.5	39.5	88	36.2	2	5	248	0.00	29.672 
01:15	39.5	39.5	39.5	89	36.5	1	5	225	0.00	29.680 
01:20	39.3	39.3	39.3	89	36.3	3	9	248	0.00	29.680 
01:25	39.2	39.2	39.2	90	36.5	2	4	270	0.00	29.680 
01:30	39.1	39.1	39.1	90	36.4	1	3	248	0.00	29.685 
01:35	38.9	38.9	38.9	91	36.5	2	6	248	0.00	29.685 
01:40	38.9	38.9	38.9	91	36.5	2	5	248	0.00	29.685 
01:45	38.9	38.9	38.9	91	36.5	2	4	248	0.00	29.689 
01:50	38.8	38.8	38.8	92	36.7	1	3	225	0.00	29.689 
01:55	38.8	38.8	38.8	92	36.7	1	4	248	0.00	29.689 
02:00	38.8	38.8	38.8	92	36.7	1	3	248	0.00	29.694 
02:05	38.8	38.8	38.8	92	36.7	1	6	248	0.00	29.694 
02:10	38.8	38.8	38.8	92	36.7	1	5	248	0.00	29.694 
02:15	38.8	38.8	38.8	92	36.7	1	3	248	0.00	29.699 
02:20	38.8	38.8	38.8	92	36.7	1	3	248	0.00	29.699 
02:25	38.8	38.8	38.8	93	37.0	1	5	270	0.00	29.699 
02:30	38.8	38.8	38.8	93	37.0	1	4	270	0.00	29.707 
02:35	38.8	38.8	38.8	93	37.0	2	6	248	0.00	29.707 
02:40	38.8	38.8	38.8	93	37.0	1	3	270	0.00	29.707 
02:45	38.8	38.8	38.8	93	37.0	2	5	248	0.00	29.714 
02:50	38.8	38.8	38.8	93	37.0	1	4	248	0.00	29.714 
02:55	38.9	38.9	38.9	93	37.1	1	4	248	0.00	29.714 
03:00	38.9	38.9	38.9	93	37.1	1	4	248	0.00	29.720 
03:05	38.9	38.9	38.9	94	37.3	1	3	248	0.00	29.720 
03:10	39.1	39.1	39.1	94	37.5	1	3	248	0.00	29.720 
03:15	39.2	39.2	39.2	94	37.6	1	3	248	0.00	29.737 
03:20	39.2	39.2	39.2	94	37.6	1	4	270	0.00	29.737 
03:25	39.2	39.2	39.2	94	37.6	1	4	248	0.00	29.737 
03:30	39.3	39.3	39.3	94	37.7	1	5	225	0.00	29.749 
03:35	39.3	39.3	39.3	94	37.7	1	4	248	0.00	29.749 
03:40	39.3	39.3	39.3	94	37.7	2	4	248	0.00	29.749 
03:45	39.5	39.5	39.5	94	37.9	1	3	248	0.00	29.761 
03:50	39.6	39.6	39.6	95	38.3	1	4	248	0.00	29.761 
03:55	39.6	39.6	39.6	95	38.3	1	3	248	0.00	29.761 
04:00	39.8	39.8	39.8	95	38.5	2	4	248	0.00	29.768 
04:05	39.9	39.9	39.9	95	38.6	2	5	270	0.00	29.768 
04:10	40.1	40.1	40.1	95	38.8	2	4	270	0.00	29.768 
04:15	39.9	37.2	39.9	95	38.6	4	7	270	0.00	29.782 
04:20	39.5	36.7	39.5	95	38.2	4	8	270	0.00	29.782 
04:25	39.2	36.4	39.2	95	37.9	4	10	270	0.00	29.782 
04:30	38.9	38.9	38.9	95	37.6	3	6	315	0.00	29.796 
04:35	38.8	38.8	38.8	95	37.5	2	6	315	0.00	29.796 
04:40	38.6	38.6	38.6	94	37.0	3	6	315	0.00	29.796 
04:45	38.5	38.5	38.5	94	36.9	3	6	270	0.00	29.802 
04:50	38.5	38.5	38.5	94	36.9	2	5	270	0.00	29.802 
04:55	38.3	38.3	38.3	94	36.7	2	5	270	0.00	29.802 
05:00	38.3	38.3	38.3	94	36.7	2	6	315	0.00	29.812 
05:05	38.3	38.3	38.3	94	36.7	2	5	315	0.00	29.812 
05:10	38.3	38.3	38.3	94	36.7	2	4	315	0.00	29.812 
05:15	38.3	38.3	38.3	94	36.7	2	4	292	0.00	29.822 
05:20	38.3	38.3	38.3	94	36.7	2	4	292	0.00	29.822 
05:25	38.3	38.3	38.3	94	36.7	2	6	338	0.00	29.822 
05:30	38.3	38.3	38.3	93	36.5	2	4	292	0.00	29.823 
05:35	38.3	38.3	38.3	93	36.5	2	5	338	0.00	29.823 
05:40	38.3	38.3	38.3	93	36.5	1	3	248	0.00	29.823 
05:45	38.3	38.3	38.3	93	36.5	1	3	315	0.00	29.836 
05:50	38.3	38.3	38.3	93	36.5	0	3	338	0.00	29.836 
05:55	38.3	38.3	38.3	93	36.5	1	3	270	0.00	29.836 
06:00	38.3	38.3	38.3	93	36.5	2	4	270	0.00	29.849 
06:05	38.3	38.3	38.3	93	36.5	2	4	338	0.00	29.849 
06:10	38.3	38.3	38.3	92	36.2	1	3	338	0.00	29.849 
06:15	38.3	38.3	38.3	92	36.2	1	4	0	0.00	29.862 
06:20	38.3	38.3	38.3	92	36.2	2	5	338	0.00	29.862 
06:25	38.5	38.5	38.5	92	36.4	1	3	292	0.00	29.862 
06:30	38.5	38.5	38.5	92	36.4	1	3	270	0.00	29.872 
06:35	38.5	38.5	38.5	92	36.4	2	4	248	0.00	29.872 
06:40	38.5	38.5	38.5	92	36.4	2	4	248	0.00	29.872 
06:45	38.5	38.5	38.5	92	36.4	2	5	248	0.00	29.881 
06:50	38.5	38.5	38.5	91	36.1	1	3	270	0.00	29.881 
06:55	38.5	38.5	38.5	91	36.1	1	3	270	0.00	29.881 
07:00	38.5	38.5	38.5	91	36.1	1	3	270	0.00	29.893 
07:05	38.5	38.5	38.5	91	36.1	1	2	270	0.00	29.893 
07:10	38.6	38.6	38.6	91	36.2	1	3	270	0.00	29.893 
07:15	38.6	38.6	38.6	91	36.2	2	5	338	0.00	29.911 
07:20	38.6	38.6	38.6	90	35.9	1	4	248	0.00	29.911 
07:25	38.6	38.6	38.6	90	35.9	1	4	270	0.00	29.911 
07:30	38.8	38.8	38.8	90	36.1	2	4	270	0.00	29.913 
07:35	38.8	38.8	38.8	90	36.1	1	4	270	0.00	29.913 
07:40	38.8	38.8	38.8	90	36.1	1	4	270	0.00	29.913 
07:45	38.8	38.8	38.8	91	36.4	1	4	315	0.00	29.926 
07:50	38.8	38.8	38.8	91	36.4	1	2	338	0.00	29.926 
07:55	38.8	38.8	38.8	91	36.4	1	3	315	0.00	29.926 
08:00	38.8	38.8	38.8	91	36.4	1	3	248	0.00	29.927 
08:05	38.8	38.8	38.8	91	36.4	1	3	248	0.00	29.927 
08:10	38.8	38.8	38.8	91	36.4	1	3	248	0.00	29.927 
08:15	38.8	38.8	38.8	91	36.4	0	2	338	0.00	29.927 
08:20	38.8	38.8	38.8	91	36.4	0	1	338	0.00	29.927 
08:25	38.8	38.8	38.8	91	36.4	0	2	338	0.00	29.927 
08:30	38.9	38.9	38.9	91	36.5	0	1	338	0.00	29.938 
08:35	38.9	38.9	38.9	91	36.5	0	1	338	0.00	29.938 
08:40	38.9	38.9	38.9	91	36.5	0	1	338	0.00	29.938 
08:45	38.9	38.9	38.9	91	36.5	0	2	338	0.00	29.947 
08:50	39.1	39.1	39.1	91	36.7	0	1	338	0.00	29.947 
08:55	39.1	39.1	39.1	91	36.7	0	1	338	0.00	29.947 
09:00	39.1	39.1	39.1	91	36.7	0	2	338	0.00	29.958 
09:05	39.1	39.1	39.1	91	36.7	0	2	338	0.00	29.958 
09:10	39.2	39.2	39.2	91	36.8	0	1	338	0.00	29.958 
09:15	39.2	39.2	39.2	91	36.8	0	2	338	0.00	29.976 
09:20	39.2	39.2	39.2	91	36.8	1	3	338	0.00	29.976 
09:25	39.3	39.3	39.3	91	36.9	0	2	338	0.00	29.976 
09:30	39.3	39.3	39.3	90	36.6	0	3	338	0.00	29.985 
09:35	39.5	39.5	39.5	90	36.8	0	1	248	0.00	29.985 
09:40	39.5	39.5	39.5	90	36.8	1	3	248	0.00	29.985 
09:45	39.5	39.5	39.5	90	36.8	1	4	248	0.00	30.002 
09:50	39.6	39.6	39.6	89	36.6	1	3	248	0.00	30.002 
09:55	39.6	39.6	39.6	89	36.6	1	4	248	0.00	30.002 
10:00	39.6	39.6	39.6	89	36.6	1	3	248	0.00	30.007 
10:05	39.6	39.6	39.6	88	36.3	1	3	248	0.00	30.007 
10:10	39.8	39.8	39.8	88	36.5	1	2	248	0.00	30.007 
10:15	39.8	39.8	39.8	88	36.5	1	3	248	0.00	30.017 
10:20	39.9	39.9	39.9	88	36.6	1	4	248	0.00	30.017 
10:25	39.9	39.9	39.9	87	36.4	1	3	248	0.00	30.017 
10:30	39.8	39.8	39.8	86	36.0	1	3	248	0.00	30.022 
10:35	39.8	39.8	39.8	84	35.4	1	3	338	0.00	30.022 
10:40	39.9	39.9	39.9	84	35.5	2	4	338	0.00	30.022 
10:45	39.9	39.9	39.9	83	35.2	1	3	270	0.00	30.029 
10:50	39.9	39.9	39.9	82	34.9	1	3	270	0.00	30.029 
10:55	39.9	39.9	39.9	81	34.6	2	3	270	0.00	30.029 
11:00	39.9	39.9	39.9	81	34.6	1	3	270	0.00	30.036 
11:05	39.9	39.9	39.9	80	34.2	0	2	248	0.00	30.036 
11:10	40.1	40.1	40.1	80	34.4	1	4	248	0.00	30.036 
11:15	40.1	40.1	40.1	80	34.4	1	3	338	0.00	30.035 
11:20	40.2	40.2	40.2	80	34.5	0	2	338	0.00	30.035 
11:25	40.2	40.2	40.2	79	34.2	0	1	338	0.00	30.035 
11:30	40.3	40.3	40.3	79	34.3	0	1	338	0.00	30.027 
11:35	40.3	40.3	40.3	80	34.6	0	0	---	0.00	30.027 
11:40	40.5	40.5	40.5	80	34.8	1	2	338	0.00	30.027 
11:45	40.5	40.5	40.5	80	34.8	0	2	338	0.00	30.025 
11:50	40.5	40.5	40.5	79	34.5	0	2	338	0.00	30.025 
11:55	40.5	40.5	40.5	79	34.5	0	2	338	0.00	30.025 
12:00	40.5	40.5	40.5	79	34.5	1	3	270	0.00	30.024 
12:05	40.5	40.5	40.5	79	34.5	0	2	270	0.00	30.024 
12:10	40.6	40.6	40.6	80	34.9	0	2	270	0.00	30.024 
12:15	40.6	40.6	40.6	79	34.6	1	4	270	0.00	30.022 
12:20	40.6	40.6	40.6	78	34.3	1	4	248	0.00	30.022 
12:25	40.8	40.8	40.8	78	34.5	1	2	248	0.00	30.022 
12:30	40.8	40.8	40.8	77	34.2	1	3	248	0.00	30.025 
12:35	40.8	40.8	40.8	76	33.8	1	3	270	0.00	30.025 
12:40	40.9	40.9	40.9	75	33.6	0	4	248	0.00	30.025 
12:45	40.9	40.9	40.9	74	33.3	1	5	248	0.00	30.025 
12:50	41.1	41.1	41.1	74	33.5	2	5	248	0.00	30.025 
12:55	41.1	41.1	41.1	72	32.8	2	5	248	0.00	30.025 
13:00	41.1	41.1	41.1	71	32.4	1	3	248	0.00	30.021 
13:05	41.3	41.3	41.3	71	32.6	0	2	248	0.00	30.021 
13:10	41.5	41.5	41.5	71	32.8	1	3	248	0.00	30.021 
13:15	41.5	41.5	41.5	71	32.8	2	4	248	0.00	30.011 
13:20	41.5	41.5	41.5	70	32.5	1	4	248	0.00	30.011 
13:25	41.5	41.5	41.5	71	32.8	1	2	270	0.00	30.011 
13:30	41.6	41.6	41.6	70	32.6	1	2	270	0.00	30.003 
13:35	41.9	41.9	41.9	71	33.2	0	2	270	0.00	30.003 
13:40	42.1	42.1	42.1	70	33.0	0	3	270	0.00	30.003 
13:45	42.2	42.2	42.2	70	33.1	1	4	248	0.00	29.993 
13:50	42.5	42.5	42.5	71	33.8	1	4	270	0.00	29.993 
13:55	42.5	42.5	42.5	69	33.1	1	4	248	0.00	29.993 
14:00	42.3	42.3	42.3	68	32.5	2	5	248	0.00	29.989 
14:05	42.3	42.3	42.3	69	32.9	1	4	248	0.00	29.989 
14:10	42.2	42.2	42.2	69	32.8	2	5	248	0.00	29.989 
14:15	42.3	42.3	42.3	70	33.2	1	4	248	0.00	29.993 
14:20	42.5	42.5	42.5	70	33.4	1	3	248	0.00	29.993 
14:25	42.3	42.3	42.3	69	32.9	1	4	248	0.00	29.993 
14:30	42.2	42.2	42.2	70	33.1	0	3	248	0.00	29.994 
14:35	42.2	42.2	42.2	71	33.5	1	4	248	0.00	29.994 
14:40	42.2	42.2	42.2	69	32.8	2	5	248	0.00	29.994 
14:45	41.9	41.9	41.9	69	32.5	1	5	248	0.00	29.991 
14:50	41.8	41.8	41.8	70	32.7	0	2	248	0.00	29.991 
14:55	42.1	42.1	42.1	71	33.4	1	4	248	0.00	29.991 
15:00	41.9	41.9	41.9	70	32.8	1	4	90	0.00	29.987 
15:05	41.6	41.6	41.6	72	33.3	1	4	90	0.00	29.987 
15:10	41.5	41.5	41.5	73	33.5	1	4	90	0.00	29.987 
15:15	41.5	41.5	41.5	74	33.8	0	2	292	0.00	29.987 
15:20	41.3	41.3	41.3	74	33.6	1	3	90	0.00	29.987 
15:25	41.3	41.3	41.3	74	33.6	1	3	248	0.00	29.987 
15:30	41.2	41.2	41.2	74	33.6	0	3	248	0.00	29.989 
15:35	41.1	41.1	41.1	74	33.5	1	3	270	0.00	29.989 
15:40	41.1	41.1	41.1	75	33.8	0	2	248	0.00	29.989 
15:45	40.9	40.9	40.9	74	33.3	1	4	135	0.00	29.994 
15:50	40.9	40.9	40.9	73	32.9	1	4	270	0.00	29.994 
15:55	40.8	40.8	40.8	73	32.8	1	3	248	0.00	29.994 
16:00	40.8	40.8	40.8	74	33.2	1	4	248	0.00	30.009 
16:05	40.8	40.8	40.8	75	33.5	1	3	0	0.00	30.009 
16:10	40.8	40.8	40.8	75	33.5	1	4	248	0.00	30.009 
16:15	40.8	40.8	40.8	75	33.5	0	2	248	0.00	30.015 
16:20	40.6	40.6	40.6	75	33.3	1	7	225	0.00	30.015 
16:25	40.5	40.5	40.5	75	33.2	1	5	270	0.00	30.015 
16:30	40.5	40.5	40.5	75	33.2	1	3	248	0.00	30.013 
16:35	40.3	40.3	40.3	75	33.0	1	3	158	0.00	30.013 
16:40	40.3	40.3	40.3	75	33.0	1	4	225	0.00	30.013 
16:45	40.3	40.3	40.3	76	33.3	0	4	270	0.00	30.025 
16:50	40.2	40.2	40.2	76	33.3	1	6	270	0.00	30.025 
16:55	40.1	40.1	40.1	75	32.8	0	3	248	0.00	30.025 
17:00	39.9	39.9	39.9	76	33.0	1	4	248	0.00	30.032 
17:05	39.9	39.9	39.9	76	33.0	1	5	248	0.00	30.032 
17:10	39.8	39.8	39.8	77	33.2	1	3	270	0.00	30.032 
17:15	39.6	39.6	39.6	77	33.0	1	3	225	0.00	30.026 
17:20	39.5	39.5	39.5	76	32.6	1	4	248	0.00	30.026 
17:25	39.2	39.2	39.2	77	32.6	1	4	248	0.00	30.026 
17:30	39.1	39.1	39.1	77	32.5	0	3	248	0.00	30.034 
17:35	38.9	38.9	38.9	77	32.3	0	1	248	0.00	30.034 
17:40	38.8	38.8	38.8	78	32.5	0	1	248	0.00	30.034 
17:45	38.6	38.6	38.6	78	32.3	1	2	248	0.00	30.020 
17:50	38.6	38.6	38.6	78	32.3	0	2	225	0.00	30.020 
17:55	38.6	38.6	38.6	79	32.7	1	2	135	0.00	30.020 
18:00	38.6	38.6	38.6	79	32.7	1	3	112	0.00	30.010 
18:05	38.5	38.5	38.5	79	32.6	1	3	158	0.00	30.010 
18:10	38.3	38.3	38.3	79	32.4	1	3	135	0.00	30.010 
18:15	38.2	38.2	38.2	80	32.6	0	1	158	0.00	30.013 
18:20	37.9	37.9	37.9	80	32.3	0	2	158	0.00	30.013 
18:25	37.8	37.8	37.8	81	32.5	0	1	158	0.00	30.013 
18:30	37.8	37.8	37.8	81	32.5	1	3	135	0.00	30.010 
18:35	37.8	37.8	37.8	81	32.5	1	2	135	0.00	30.010 
18:40	37.9	37.9	37.9	81	32.6	0	2	90	0.00	30.010 
18:45	38.0	38.0	38.0	81	32.7	1	4	90	0.00	30.012 
18:50	38.0	38.0	38.0	81	32.7	0	1	90	0.00	30.012 
18:55	38.2	38.2	38.2	82	33.2	1	4	68	0.00	30.012 
19:00	38.3	38.3	38.3	82	33.3	1	2	68	0.00	30.019 
19:05	38.3	38.3	38.3	82	33.3	0	1	68	0.00	30.019 
19:10	38.5	38.5	38.5	82	33.5	1	5	68	0.00	30.019 
19:15	38.6	38.6	38.6	82	33.6	1	5	112	0.00	30.017 
19:20	38.6	38.6	38.6	83	33.9	2	5	112	0.00	30.017 
19:25	38.8	38.8	38.8	83	34.1	2	6	90	0.00	30.017 
19:30	38.8	38.8	38.8	84	34.4	2	9	90	0.00	30.011 
19:35	38.8	38.8	38.8	84	34.4	2	6	90	0.00	30.011 
19:40	38.9	38.9	38.9	85	34.8	2	6	90	0.00	30.011 
19:45	38.8	38.8	38.8	85	34.7	2	5	90	0.00	30.009 
19:50	38.8	38.8	38.8	86	35.0	2	6	112	0.00	30.009 
19:55	38.8	38.8	38.8	86	35.0	1	6	90	0.00	30.009 
20:00	38.8	38.8	38.8	86	35.0	2	7	90	0.00	30.010 
20:05	38.8	38.8	38.8	87	35.3	1	6	90	0.00	30.010 
20:10	38.8	38.8	38.8	87	35.3	2	7	225	0.00	30.010 
20:15	38.6	38.6	38.6	87	35.1	2	7	90	0.00	30.009 
20:20	38.6	38.6	38.6	87	35.1	2	6	68	0.00	30.009 
20:25	38.6	38.6	38.6	87	35.1	2	6	112	0.00	30.009 
20:30	38.6	38.6	38.6	88	35.4	1	4	112	0.00	30.007 
20:35	38.8	38.8	38.8	88	35.6	2	5	90	0.00	30.007 
20:40	38.8	38.8	38.8	88	35.6	3	9	90	0.00	30.007 
20:45	38.8	38.8	38.8	88	35.6	2	5	112	0.00	29.997 
20:50	38.8	38.8	38.8	88	35.6	2	6	112	0.00	29.997 
20:55	38.8	38.8	38.8	88	35.6	2	6	112	0.00	29.997 
21:00	38.8	38.8	38.8	88	35.6	2	4	112	0.00	29.988 
21:05	38.8	38.8	38.8	88	35.6	2	4	112	0.00	29.988 
21:10	38.8	38.8	38.8	88	35.6	1	3	112	0.00	29.988 
21:15	38.8	38.8	38.8	88	35.6	2	4	90	0.00	29.990 
21:20	38.8	38.8	38.8	88	35.6	1	3	90	0.00	29.990 
21:25	38.8	38.8	38.8	88	35.6	2	5	90	0.00	29.990 
21:30	38.8	38.8	38.8	88	35.6	2	5	112	0.00	29.987 
21:35	38.8	38.8	38.8	88	35.6	2	11	112	0.00	29.987 
21:40	38.8	38.8	38.8	88	35.6	2	11	112	0.00	29.987 
21:45	38.8	38.8	38.8	88	35.6	2	4	90	0.00	29.978 
21:50	38.9	38.9	38.9	87	35.4	3	5	112	0.00	29.978 
21:55	38.9	38.9	38.9	87	35.4	3	9	90	0.00	29.978 
22:00	39.1	39.1	39.1	87	35.6	2	5	112	0.00	29.979 
22:05	39.1	39.1	39.1	87	35.6	1	5	112	0.00	29.979 
22:10	39.1	39.1	39.1	87	35.6	2	6	90	0.00	29.979 
22:15	39.1	39.1	39.1	87	35.6	2	5	90	0.00	29.963 
22:20	39.1	39.1	39.1	87	35.6	2	5	112	0.00	29.963 
22:25	38.9	38.9	38.9	87	35.4	2	5	90	0.00	29.963 
22:30	38.9	38.9	38.9	87	35.4	2	5	135	0.00	29.949 
22:35	38.8	38.8	38.8	88	35.6	2	6	90	0.00	29.949 
22:40	38.6	38.6	38.6	88	35.4	2	6	68	0.00	29.949 
22:45	38.3	38.3	38.3	88	35.1	1	3	135	0.00	29.948 
22:50	38.2	38.2	38.2	88	35.0	1	3	112	0.00	29.948 
22:55	37.9	37.9	37.9	88	34.7	1	3	112	0.00	29.948 
23:00	37.8	37.8	37.8	88	34.6	1	4	112	0.00	29.946 
23:05	37.6	37.6	37.6	88	34.4	0	2	90	0.00	29.946 
23:10	37.5	37.5	37.5	89	34.6	2	4	90	0.00	29.946 
23:15	37.3	37.3	37.3	89	34.4	1	3	90	0.00	29.935 
23:20	37.3	37.3	37.3	90	34.6	1	4	90	0.00	29.935 
23:25	37.2	37.2	37.2	90	34.5	1	2	68	0.00	29.935 
23:30	37.0	37.0	37.0	90	34.3	1	4	68	0.00	29.927 
23:35	36.9	36.9	36.9	90	34.2	0	3	68	0.00	29.927 
23:40	36.9	36.9	36.9	90	34.2	1	3	68	0.00	29.927 
23:45	36.8	36.8	36.8	90	34.1	1	3	112	0.00	29.920 
23:50	36.9	36.9	36.9	91	34.5	1	3	90	0.00	29.920 
23:55	36.9	36.9	36.9	91	34.5	2	5	112	0.00	29.920 

CoCoRaHS
IN-AL-39
A2 Web Hosting
Creative Commons License
GoDaddy
search engine by freefind advanced

loaded 2018-11-17 05:43:56 • last modified 2010-11-18 10:43:29
Privacy PolicyDisclaimer
• wx.awcolley.com is powered by PmWiki v.2002016 •
• all content (unless otherwise noted) © 2018 A W Colley